Tropical Cyclones
[Index]
Main Index Home Page Stock Weather Photos Extreme Storms Discussion Storm News and Storm Chasing Reports Tropical Cyclones / Hurricanes / Typhoons Weather Data and Links Wild Fires / Bushfires Weather Observation Techniques Weather Picture Catalogue Tornado Pictures and Reports Stock Video Footage and DVDs for sale
Season 1993-1994 Tropical Cyclone OSCAR Track Map
Season 1993-1994 Summaries: [BoM-AU] [JTWC-AU] [JTWC-SIO] [JTWC-SPAC] [JTWC-SH]
<<- Previous TC | BoM 1993-1994 Season | Next TC ->>

click for intensity scale information  Lat/long Grid: Show Hide

 Date Labels: Show Hide

Bureau of Meteorology Tropical Cyclone Data

Name: OSCAR
Number: 763 / 199394_03

28 Dec 1993 00:00 UTC to 09 Jan 1994 00:00 UTC

    date/time    lat    long    hPa   cat  kts
1993-12-28 00   12.1   129.7   1005         19          
1993-12-28 12   11.2   129.5   1005         19          
1993-12-29 00   10.8   129.0   1004         21          
1993-12-29 12   10.8   128.3   1002         23          
1993-12-30 00   10.9   128.1   1000         27          
1993-12-30 12   11.1   127.2    998         29          
1993-12-31 00   11.3   126.4    996         33          
1993-12-31 12   12.1   126.0    998         29          
1994-01-01 00   12.5   124.6   1000         27          
1994-01-01 12   13.6   123.5   1002         23          
1994-01-02 00   14.6   121.7   1000         27          
1994-01-02 12   15.5   121.0    999         29          
1994-01-03 00   16.7   120.3    995    1    35          
1994-01-03 03   16.9   119.9    995    1    35          
1994-01-03 06   17.1   119.5    995    1    35          
1994-01-03 09   17.0   119.0    995    1    35          
1994-01-03 12   16.9   118.5    996         33          
1994-01-03 18   17.2   117.9    998         29          
1994-01-04 00   17.4   117.3   1000         27          
1994-01-04 12   17.2   116.4   1000         27          
1994-01-05 00   16.7   115.7   1000         27          
1994-01-05 06   16.4   115.4   1000         27          
1994-01-05 12   16.8   114.9   1000         27          
1994-01-06 00   16.9   114.0   1005         19          
1994-01-06 12   16.9   112.9   1005         19          
1994-01-07 00   17.1   111.9   1005         19          
1994-01-07 12   17.1   111.6   1005         19          
1994-01-08 00   17.0   111.3   1005         19          
1994-01-08 12   16.5   110.2   1005         19          
1994-01-09 00   16.0   109.4   1008                     
Winds are 10-min average.

Tropical cyclone tracks developed by Michael Bath using data from the Bureau of Meteorology and Google Maps.


[Australian Severe Weather index] [Copyright Notice] [Email Contacts] [Search This Site] [Privacy Policy]
Document: tropical_cyclone_oscar.htm Updated: 30 May 2013